Time;durP1;ratioP1;P1;durP2;ratioP2;P2;SDS_P1;SDS_P2;PMS_P1;PMS_P2;Temp;Humidity;BMP_temperature;BMP_pressure;BME280_temperature;BME280_humidity;BME280_pressure;Samples;Min_cycle;Max_cycle;Signal;HPM_P1;HPM_P2
2022/11/03 00:01:12;;;;;;;5.25;1.70;;;;;;;7.81;89.07;99230.69;5030042;28;20758;-43
2022/11/03 00:03:38;;;;;;;2.53;0.80;;;;;;;7.78;89.28;99236.94;5029891;28;20124;-43
2022/11/03 00:06:05;;;;;;;4.43;1.27;;;;;;;7.77;89.24;99240.81;5030679;28;20045;-42
2022/11/03 00:08:41;;;;;;;4.85;1.40;;;;;;;7.75;89.20;99243.16;5030341;28;20152;-41
2022/11/03 00:11:10;;;;;;;7.15;1.67;;;;;;;7.71;89.29;99234.81;5030485;28;20045;-43
2022/11/03 00:13:39;;;;;;;3.17;0.93;;;;;;;7.72;89.26;99236.41;5028058;28;20096;-44
2022/11/03 00:16:07;;;;;;;4.63;1.25;;;;;;;7.72;89.14;99244.69;5030456;28;20037;-47
2022/11/03 00:18:34;;;;;;;2.72;0.95;;;;;;;7.72;89.16;99241.13;5030153;28;20052;-42
2022/11/03 00:21:06;;;;;;;5.82;1.08;;;;;;;7.70;89.11;99241.50;5028020;28;20053;-45
2022/11/03 00:23:38;;;;;;;4.43;1.80;;;;;;;7.68;88.93;99246.53;5027855;28;20061;-43
2022/11/03 00:26:25;;;;;;;6.32;2.00;;;;;;;7.65;89.00;99240.97;5028443;28;20103;-45
2022/11/03 00:28:54;;;;;;;1.92;1.08;;;;;;;7.63;89.00;99241.34;5025821;28;20052;-41
2022/11/03 00:31:23;;;;;;;3.60;1.60;;;;;;;7.60;89.00;99236.53;5028972;28;20060;-43
2022/11/03 00:33:50;;;;;;;4.47;1.05;;;;;;;7.58;89.16;99236.13;5028666;28;20377;-43
2022/11/03 00:36:20;;;;;;;3.03;1.67;;;;;;;7.57;88.99;99234.50;5028987;28;20407;-46
2022/11/03 00:38:47;;;;;;;9.85;1.35;;;;;;;7.55;89.09;99228.56;5035829;28;20403;-41
2022/11/03 00:41:14;;;;;;;3.42;0.93;;;;;;;7.54;89.10;99227.00;5025186;28;20033;-43
2022/11/03 00:43:41;;;;;;;7.90;0.90;;;;;;;7.51;89.28;99211.19;5021480;28;20049;-41
2022/11/03 00:46:08;;;;;;;7.20;1.13;;;;;;;7.51;89.03;99213.94;5027276;28;20052;-41
2022/11/03 00:48:36;;;;;;;5.57;0.80;;;;;;;7.50;89.04;99217.03;5023213;28;20495;-42
2022/11/03 00:51:16;;;;;;;4.80;0.70;;;;;;;7.49;88.95;99216.28;5026061;28;20045;-42
2022/11/03 00:53:55;;;;;;;2.70;1.02;;;;;;;7.49;88.97;99212.72;5027180;28;20083;-42
2022/11/03 00:56:24;;;;;;;3.80;1.00;;;;;;;7.46;88.90;99211.47;5023905;28;20068;-43
2022/11/03 00:58:52;;;;;;;4.78;1.10;;;;;;;7.44;88.96;99199.25;5028058;28;20045;-47
2022/11/03 01:01:22;;;;;;;5.60;0.75;;;;;;;7.42;88.90;99196.81;5027432;28;20570;-43
2022/11/03 01:06:48;;;;;;;5.28;1.30;;;;;;;7.41;88.62;99200.75;5024381;28;20049;-42
2022/11/03 01:09:24;;;;;;;2.38;0.63;;;;;;;7.39;88.54;99203.06;5025420;28;20048;-44
2022/11/03 01:12:02;;;;;;;3.35;0.80;;;;;;;7.37;88.43;99199.88;5026526;28;20062;-41
2022/11/03 01:14:34;;;;;;;2.70;0.60;;;;;;;7.33;88.33;99194.28;5025868;28;20052;-42
2022/11/03 01:17:03;;;;;;;5.63;1.52;;;;;;;7.32;88.45;99191.91;5025524;28;20046;-42
2022/11/03 01:19:30;;;;;;;4.50;0.98;;;;;;;7.30;88.38;99183.22;5027652;28;20491;-42
2022/11/03 01:21:56;;;;;;;3.85;0.95;;;;;;;7.26;88.30;99182.31;5027008;28;20049;-47
2022/11/03 01:24:23;;;;;;;5.45;1.73;;;;;;;7.26;88.30;99177.63;5028522;28;20034;-43
2022/11/03 01:26:49;;;;;;;4.65;0.70;;;;;;;7.25;88.21;99172.50;5021193;28;20049;-42
2022/11/03 01:29:17;;;;;;;6.97;1.27;;;;;;;7.25;88.13;99172.50;5029136;28;20201;-45
2022/11/03 01:31:44;;;;;;;2.92;0.90;;;;;;;7.24;87.96;99157.94;5027946;28;20052;-42
2022/11/03 01:34:18;;;;;;;4.45;1.30;;;;;;;7.23;87.99;99144.50;5028296;28;20140;-45
2022/11/03 01:36:46;;;;;;;5.90;1.65;;;;;;;7.24;88.02;99155.16;5029169;28;20053;-42
2022/11/03 01:39:16;;;;;;;4.65;1.70;;;;;;;7.23;87.84;99147.25;5024492;28;20466;-43
2022/11/03 01:41:44;;;;;;;2.88;0.98;;;;;;;7.22;87.90;99152.00;5028944;28;20045;-44
2022/11/03 01:44:11;;;;;;;3.58;0.75;;;;;;;7.21;87.62;99144.88;5028915;28;20063;-44
2022/11/03 01:46:50;;;;;;;9.15;0.68;;;;;;;7.21;87.58;99141.31;5028756;28;20049;-49
2022/11/03 01:49:24;;;;;;;7.93;1.10;;;;;;;7.21;87.63;99136.63;5028580;28;20053;-45
2022/11/03 01:51:57;;;;;;;3.30;0.80;;;;;;;7.21;87.51;99144.09;5028665;28;20053;-44
2022/11/03 01:54:27;;;;;;;4.85;1.00;;;;;;;7.21;87.55;99133.06;5027586;28;20087;-42
2022/11/03 01:56:55;;;;;;;5.50;1.00;;;;;;;7.18;87.46;99134.59;5016201;28;20053;-44
2022/11/03 01:59:23;;;;;;;4.13;0.95;;;;;;;7.17;87.42;99134.97;5020102;28;20065;-44
2022/11/03 02:01:50;;;;;;;8.88;2.58;;;;;;;7.16;87.29;99138.88;5025604;28;20042;-45
2022/11/03 02:04:26;;;;;;;7.97;1.10;;;;;;;7.14;87.35;99135.69;5028557;28;20034;-47
2022/11/03 02:07:02;;;;;;;6.15;3.63;;;;;;;7.12;87.57;99127.78;5024802;28;20415;-42
2022/11/03 02:09:30;;;;;;;4.72;1.40;;;;;;;7.10;87.45;99134.78;5027596;28;20041;-45
2022/11/03 02:12:06;;;;;;;9.75;1.30;;;;;;;7.07;87.60;99130.81;5026654;28;20056;-42
2022/11/03 02:14:36;;;;;;;5.55;1.10;;;;;;;7.07;87.41;99130.81;5027550;28;20411;-42
2022/11/03 02:17:08;;;;;;;9.20;1.23;;;;;;;7.06;87.32;99128.44;5025730;28;20037;-42
2022/11/03 02:19:46;;;;;;;3.97;1.10;;;;;;;7.03;87.37;99135.47;5027881;28;20045;-40
2022/11/03 02:22:24;;;;;;;7.22;1.13;;;;;;;6.98;87.49;99130.25;5027008;28;20045;-45
2022/11/03 02:25:12;;;;;;;8.27;1.25;;;;;;;6.95;87.57;99125.47;5023045;28;20049;-41
2022/11/03 02:27:39;;;;;;;9.00;2.50;;;;;;;6.93;87.44;99121.47;5027296;28;20049;-42
2022/11/03 02:30:07;;;;;;;5.07;1.00;;;;;;;6.90;87.64;99120.25;5018435;28;20085;-42
2022/11/03 02:32:47;;;;;;;8.05;0.95;;;;;;;6.87;87.55;99117.41;5028197;28;20059;-42
2022/11/03 02:35:21;;;;;;;7.22;1.38;;;;;;;6.81;87.64;99124.34;5028449;28;20041;-47
2022/11/03 02:37:53;;;;;;;6.72;2.00;;;;;;;6.77;87.66;99120.72;5024568;28;20567;-43
2022/11/03 02:40:26;;;;;;;;;;;;;;;6.72;88.04;99130.84;5019772;28;20092;-45
2022/11/03 02:42:55;;;;;;;4.72;1.70;;;;;;;6.69;87.68;99125.28;5028699;28;20409;-42
2022/11/03 02:45:24;;;;;;;7.35;1.75;;;;;;;6.65;87.87;99125.19;5028159;28;20054;-41
2022/11/03 02:47:56;;;;;;;29.63;9.15;;;;;;;6.60;87.78;99139.22;5027813;28;20132;-45
2022/11/03 02:50:28;;;;;;;19.83;7.73;;;;;;;6.55;87.94;99125.75;5028223;28;20057;-42
2022/11/03 02:52:56;;;;;;;16.95;5.38;;;;;;;6.56;87.96;99130.09;5021324;28;20298;-48
2022/11/03 02:55:45;;;;;;;7.13;2.58;;;;;;;6.52;88.17;99126.44;5028419;28;20045;-44
2022/11/03 02:58:23;;;;;;;12.50;2.28;;;;;;;6.51;88.13;99138.59;5028572;28;20048;-42
2022/11/03 03:01:01;;;;;;;10.70;1.80;;;;;;;6.50;88.41;99127.97;5046036;22;20057;-42
2022/11/03 03:03:36;;;;;;;5.80;1.80;;;;;;;6.48;88.48;99131.09;5044774;28;20056;-42
2022/11/03 03:06:13;;;;;;;9.55;1.38;;;;;;;6.48;88.30;99130.28;5045825;28;20052;-41
2022/11/03 03:08:45;;;;;;;17.35;1.55;;;;;;;6.46;88.23;99125.13;5039395;28;20049;-44
2022/11/03 03:11:12;;;;;;;7.90;1.38;;;;;;;6.47;88.11;99128.69;5042771;28;20156;-43
2022/11/03 03:13:42;;;;;;;8.13;1.55;;;;;;;6.51;88.17;99124.84;5046707;28;20040;-42
2022/11/03 03:16:41;;;;;;;7.35;1.10;;;;;;;6.54;88.26;99110.38;5041278;28;20080;-42
2022/11/03 03:19:28;;;;;;;11.38;0.95;;;;;;;6.56;87.71;99113.59;5043539;28;20068;-48
2022/11/03 03:21:59;;;;;;;5.78;2.15;;;;;;;6.57;88.00;99101.44;5047119;28;20052;-50
2022/11/03 03:24:32;;;;;;;6.38;1.02;;;;;;;6.54;87.87;99093.91;5034871;28;20057;-42
2022/11/03 03:27:03;;;;;;;9.18;1.35;;;;;;;6.56;87.76;99091.59;5047482;28;20061;-43
2022/11/03 03:29:36;;;;;;;6.53;2.00;;;;;;;6.57;87.91;99078.63;5043721;28;20033;-48
2022/11/03 03:32:08;;;;;;;6.88;0.98;;;;;;;6.58;87.83;99072.00;5045958;28;20142;-42
2022/11/03 03:34:38;;;;;;;11.68;1.13;;;;;;;6.60;87.50;99075.97;5050870;28;20433;-42
2022/11/03 03:37:07;;;;;;;6.65;1.80;;;;;;;6.62;87.55;99070.91;5049067;28;20044;-44
2022/11/03 03:39:38;;;;;;;5.90;1.08;;;;;;;6.62;87.49;99068.16;5044269;28;20064;-42
2022/11/03 03:42:08;;;;;;;8.50;1.35;;;;;;;6.63;87.30;99072.50;5032519;28;20502;-42
2022/11/03 03:44:38;;;;;;;12.35;2.65;;;;;;;6.61;87.25;99063.81;5051423;28;20044;-42
2022/11/03 03:47:20;;;;;;;11.90;1.52;;;;;;;6.60;87.55;99059.47;5044986;28;20425;-41
2022/11/03 03:49:47;;;;;;;8.88;2.03;;;;;;;6.59;87.32;99054.34;5051124;28;20558;-45
2022/11/03 03:52:15;;;;;;;8.45;1.38;;;;;;;6.55;87.30;99048.75;5050521;28;20051;-47
2022/11/03 03:54:41;;;;;;;9.15;1.30;;;;;;;6.54;87.36;99052.66;5055065;28;20052;-42
2022/11/03 03:57:14;;;;;;;6.95;1.10;;;;;;;6.53;87.33;99056.59;5030818;28;20052;-43
2022/11/03 03:59:42;;;;;;;7.55;2.17;;;;;;;6.53;87.20;99055.78;5048687;28;20045;-43
2022/11/03 04:02:10;;;;;;;4.95;1.60;;;;;;;6.50;87.28;99048.25;5046910;28;20049;-40
2022/11/03 04:04:37;;;;;;;6.22;1.30;;;;;;;6.47;87.28;99052.50;5048935;28;20528;-43
2022/11/03 04:09:49;;;;;;;9.93;2.05;;;;;;;6.42;87.35;99044.53;5045915;28;20495;-42
2022/11/03 04:23:19;;;;;;;6.45;1.77;;;;;;;6.29;87.53;99045.81;5049170;28;20060;-42
2022/11/03 04:25:49;;;;;;;7.07;2.10;;;;;;;6.27;87.48;99047.34;5045335;28;20596;-42
2022/11/03 04:28:16;;;;;;;5.15;1.45;;;;;;;6.25;87.69;99050.41;5049999;28;20041;-41
2022/11/03 04:30:43;;;;;;;16.10;1.52;;;;;;;6.23;87.63;99041.75;5031498;28;20049;-41
2022/11/03 04:33:14;;;;;;;5.68;1.10;;;;;;;6.23;87.54;99036.25;5030503;28;20071;-42
2022/11/03 04:35:45;;;;;;;9.05;2.20;;;;;;;6.19;87.63;99034.59;5027847;28;20045;-42
2022/11/03 04:38:14;;;;;;;5.30;1.63;;;;;;;6.19;87.84;99046.38;5046300;28;20103;-42
2022/11/03 04:40:44;;;;;;;9.10;1.35;;;;;;;6.16;87.87;99036.09;5046834;28;20052;-47
2022/11/03 04:43:19;;;;;;;6.82;2.20;;;;;;;6.17;87.90;99047.88;5031753;28;20128;-42
2022/11/03 04:45:46;;;;;;;5.57;1.40;;;;;;;6.15;87.97;99050.97;5048300;28;20037;-42
2022/11/03 04:48:23;;;;;;;8.95;1.75;;;;;;;6.15;88.05;99056.47;5049925;28;20045;-43
2022/11/03 04:50:57;;;;;;;5.50;1.88;;;;;;;6.15;88.01;99056.47;5048509;28;20053;-41
2022/11/03 04:53:29;;;;;;;6.55;1.48;;;;;;;6.14;88.11;99043.91;5035613;28;20412;-41
2022/11/03 04:55:55;;;;;;;4.82;1.70;;;;;;;6.12;88.07;99060.72;5049157;28;20045;-42
2022/11/03 04:58:25;;;;;;;4.82;1.40;;;;;;;6.10;88.06;99059.50;5050008;28;20041;-43
2022/11/03 05:00:55;;;;;;;8.52;1.40;;;;;;;6.08;88.10;99059.88;5049544;28;20360;-41
2022/11/03 05:03:26;;;;;;;11.45;1.88;;;;;;;6.09;88.20;99069.69;5031797;28;20079;-45
2022/11/03 05:05:53;;;;;;;9.55;2.03;;;;;;;6.11;88.29;99072.09;5049341;28;20049;-42
2022/11/03 05:08:20;;;;;;;8.82;1.42;;;;;;;6.10;88.16;99076.78;5039370;28;20107;-41
2022/11/03 05:10:48;;;;;;;9.30;2.10;;;;;;;6.12;88.18;99070.91;5049501;28;20045;-42
2022/11/03 05:13:22;;;;;;;17.25;2.47;;;;;;;6.13;88.29;99064.28;5048957;28;20056;-42
2022/11/03 05:15:51;;;;;;;5.20;1.48;;;;;;;6.14;88.07;99057.66;5042265;28;20458;-44
2022/11/03 05:18:30;;;;;;;11.43;1.58;;;;;;;6.14;88.08;99063.91;5045402;28;20048;-41
2022/11/03 05:21:04;;;;;;;14.75;2.50;;;;;;;6.16;88.16;99058.06;5054762;28;20564;-42
2022/11/03 05:23:39;;;;;;;11.57;1.50;;;;;;;6.17;88.14;99056.13;5040796;28;20471;-43
2022/11/03 05:26:13;;;;;;;9.25;1.55;;;;;;;6.15;87.78;99067.47;5042911;28;20044;-43
2022/11/03 05:28:44;;;;;;;9.95;1.50;;;;;;;6.12;87.85;99063.47;5047169;28;20102;-43
2022/11/03 05:31:24;;;;;;;8.10;1.77;;;;;;;6.09;88.08;99057.88;5044519;28;20043;-42
2022/11/03 05:33:52;;;;;;;8.65;1.55;;;;;;;6.06;87.94;99061.38;5045434;28;20150;-42
2022/11/03 05:36:22;;;;;;;9.70;1.63;;;;;;;6.04;88.08;99058.97;5050202;28;20391;-42
2022/11/03 05:38:50;;;;;;;12.52;1.90;;;;;;;6.03;87.88;99059.34;5046159;28;20067;-42
2022/11/03 05:41:23;;;;;;;9.23;1.83;;;;;;;6.01;87.97;99056.16;5042172;28;20422;-41
2022/11/03 05:44:00;;;;;;;11.52;1.33;;;;;;;5.98;87.93;99054.13;5038442;28;20487;-43
2022/11/03 05:46:31;;;;;;;2.17;1.10;;;;;;;5.94;87.86;99045.78;5040438;28;20045;-42
2022/11/03 05:49:01;;;;;;;8.98;1.85;;;;;;;5.91;87.95;99051.19;5046854;28;20048;-43
2022/11/03 05:51:33;;;;;;;12.13;2.28;;;;;;;5.88;88.07;99052.69;5044096;28;20124;-42
2022/11/03 05:54:05;;;;;;;5.45;1.30;;;;;;;5.82;87.99;99047.81;5045611;28;20056;-42
2022/11/03 05:56:33;;;;;;;10.38;3.05;;;;;;;5.83;88.42;99043.88;5043060;28;20048;-44
2022/11/03 05:59:03;;;;;;;7.35;1.75;;;;;;;5.79;88.23;99048.50;5048637;28;20056;-42
2022/11/03 06:01:34;;;;;;;7.63;1.38;;;;;;;5.73;88.35;99044.41;5048300;28;20049;-43
2022/11/03 06:04:30;;;;;;;9.35;1.20;;;;;;;5.63;88.67;99031.22;5048968;28;20055;-42
2022/11/03 06:07:01;;;;;;;9.27;2.88;;;;;;;5.64;88.68;99030.09;5036252;28;20045;-45
2022/11/03 06:09:28;;;;;;;7.25;1.33;;;;;;;5.63;88.54;99028.47;5040915;28;20049;-42
2022/11/03 06:11:57;;;;;;;7.53;1.85;;;;;;;5.61;88.55;99023.34;5054504;28;20052;-42
2022/11/03 06:14:25;;;;;;;11.23;3.33;;;;;;;5.59;88.68;99017.41;5048233;28;20402;-41
2022/11/03 06:17:04;;;;;;;13.57;2.20;;;;;;;5.57;88.77;99008.72;5048498;28;20045;-42
2022/11/03 06:19:36;;;;;;;5.70;1.25;;;;;;;5.50;88.80;99009.38;5048587;28;20053;-42
2022/11/03 06:22:15;;;;;;;11.23;1.55;;;;;;;5.49;88.76;99007.75;5046293;28;20037;-42
2022/11/03 06:24:42;;;;;;;9.50;2.00;;;;;;;5.49;88.95;99013.25;5042183;28;20056;-44
2022/11/03 06:27:15;;;;;;;6.60;1.52;;;;;;;5.48;88.73;99011.66;5048676;28;20037;-41
2022/11/03 06:29:47;;;;;;;10.18;2.17;;;;;;;5.43;88.96;99006.41;5045685;28;20045;-46
2022/11/03 06:32:14;;;;;;;;;;;;;;;5.45;89.34;98998.63;5018909;28;20503;-42
2022/11/03 06:34:45;;;;;;;8.15;1.50;;;;;;;5.49;88.88;99012.44;5040401;28;19927;-43
2022/11/03 06:37:15;;;;;;;5.60;2.03;;;;;;;5.50;89.06;99006.63;5044843;28;20061;-47
2022/11/03 06:39:42;;;;;;;9.45;1.67;;;;;;;5.53;88.83;99013.34;5045606;28;20053;-42
2022/11/03 06:42:13;;;;;;;8.77;2.40;;;;;;;5.56;88.89;99007.13;5046094;28;20045;-41
2022/11/03 06:44:43;;;;;;;9.38;1.45;;;;;;;5.58;88.89;99009.53;5042563;28;20402;-44
2022/11/03 06:47:27;;;;;;;10.82;2.13;;;;;;;5.63;88.95;99001.03;5041688;28;20045;-42
2022/11/03 06:49:59;;;;;;;6.72;1.55;;;;;;;5.66;88.86;99009.38;5046654;28;20052;-41
2022/11/03 06:52:32;;;;;;;8.43;1.30;;;;;;;5.70;88.52;99006.69;5050283;28;20076;-41
2022/11/03 06:55:11;;;;;;;11.80;2.22;;;;;;;5.73;88.83;99008.72;5049902;28;20076;-43
2022/11/03 06:57:45;;;;;;;6.93;2.20;;;;;;;5.76;88.57;99003.34;5049095;28;20052;-42
2022/11/03 07:00:24;;;;;;;14.38;1.90;;;;;;;5.80;88.70;99011.66;5034903;28;20391;-42
2022/11/03 07:03:19;;;;;;;9.90;2.47;;;;;;;5.82;88.61;98998.38;5048599;28;20135;-41
2022/11/03 07:05:46;;;;;;;5.18;1.17;;;;;;;5.83;88.63;98994.44;5045751;28;20401;-47
2022/11/03 07:08:25;;;;;;;8.13;1.30;;;;;;;5.86;88.56;98991.03;5047896;28;20044;-50
2022/11/03 07:11:15;;;;;;;9.45;1.95;;;;;;;5.89;88.16;98995.81;5044991;28;20056;-43
2022/11/03 07:13:42;;;;;;;7.68;1.20;;;;;;;5.90;88.26;98991.94;5047780;28;20045;-42
2022/11/03 07:16:33;;;;;;;6.25;1.10;;;;;;;5.92;88.15;98982.16;5043905;28;20052;-44
2022/11/03 07:19:02;;;;;;;5.82;2.20;;;;;;;5.94;88.17;98981.81;5045219;28;20073;-40
2022/11/03 07:21:57;;;;;;;6.93;1.73;;;;;;;5.93;88.33;98982.97;5049004;28;20041;-42
2022/11/03 07:24:35;;;;;;;4.90;1.20;;;;;;;5.94;88.25;98977.13;5044028;28;20048;-42
2022/11/03 07:27:09;;;;;;;7.55;1.27;;;;;;;5.95;88.26;98975.16;5047002;28;20048;-40
2022/11/03 07:29:36;;;;;;;7.40;1.40;;;;;;;5.94;88.18;98973.56;5050527;28;20037;-43
2022/11/03 07:32:10;;;;;;;10.32;2.33;;;;;;;5.91;88.11;98969.59;5045831;28;20040;-42
2022/11/03 07:34:37;;;;;;;6.43;1.20;;;;;;;5.90;88.21;98972.69;5049674;28;20033;-42
2022/11/03 07:37:03;;;;;;;8.35;1.20;;;;;;;5.87;88.13;98970.66;5051883;28;20111;-42
2022/11/03 07:39:36;;;;;;;9.63;1.60;;;;;;;5.85;88.24;98971.00;5050801;28;20041;-42
2022/11/03 07:42:14;;;;;;;5.40;0.90;;;;;;;5.84;88.09;98968.59;5048069;28;20044;-41
2022/11/03 07:44:41;;;;;;;9.52;1.23;;;;;;;5.82;88.34;98966.22;5050339;28;20120;-42
2022/11/03 07:47:18;;;;;;;5.53;1.48;;;;;;;5.82;88.42;98965.41;5051096;28;20048;-41
2022/11/03 07:49:46;;;;;;;7.68;1.75;;;;;;;5.76;87.95;98969.56;5050891;28;20478;-41
2022/11/03 07:52:19;;;;;;;8.13;1.20;;;;;;;5.70;88.38;98965.50;5050528;28;20613;-42
2022/11/03 07:54:46;;;;;;;6.00;1.75;;;;;;;5.69;88.32;98963.94;5051787;28;20398;-45
2022/11/03 07:57:25;;;;;;;7.15;1.77;;;;;;;5.68;88.51;98959.59;5050918;28;20041;-42
2022/11/03 07:59:56;;;;;;;8.52;1.52;;;;;;;5.66;88.63;98961.88;5050789;28;20487;-42
2022/11/03 08:02:32;;;;;;;6.40;0.88;;;;;;;5.67;88.72;98963.47;5048100;28;20053;-42
2022/11/03 08:05:00;;;;;;;8.07;1.10;;;;;;;5.69;88.75;98961.19;5040160;28;20053;-46
2022/11/03 08:07:27;;;;;;;7.40;1.50;;;;;;;5.69;88.69;98955.69;5042334;28;20392;-42
2022/11/03 08:09:54;;;;;;;11.48;1.77;;;;;;;5.69;88.48;98962.00;5027433;28;20060;-42
2022/11/03 08:12:21;;;;;;;7.60;1.40;;;;;;;5.73;88.76;98962.06;5026110;28;20056;-41
2022/11/03 08:14:48;;;;;;;9.07;1.50;;;;;;;5.73;88.60;98968.34;5038391;28;20056;-42
2022/11/03 08:17:14;;;;;;;10.25;1.65;;;;;;;5.77;88.51;98962.94;5046776;28;20056;-42
2022/11/03 08:19:41;;;;;;;10.25;2.28;;;;;;;5.78;88.62;98972.75;5046158;28;20053;-43
2022/11/03 08:22:08;;;;;;;3.88;1.58;;;;;;;5.82;88.80;98963.47;5027504;28;20048;-44
2022/11/03 08:24:34;;;;;;;7.57;1.60;;;;;;;5.87;88.69;98967.91;5047858;28;20060;-43
2022/11/03 08:27:02;;;;;;;17.35;5.30;;;;;;;5.89;88.61;98971.91;5059543;28;20052;-43
2022/11/03 08:29:29;;;;;;;11.98;3.10;;;;;;;5.91;88.67;98960.53;5049994;28;20059;-42
2022/11/03 08:31:55;;;;;;;9.32;3.60;;;;;;;5.95;88.54;98958.69;5046302;28;20067;-42
2022/11/03 08:34:22;;;;;;;11.93;3.42;;;;;;;5.97;88.55;98950.88;5047694;28;20052;-43
2022/11/03 08:36:49;;;;;;;6.60;1.48;;;;;;;6.00;88.58;98955.66;5049147;28;20047;-46
2022/11/03 08:39:16;;;;;;;3.53;2.45;;;;;;;6.02;88.67;98945.09;5040910;28;20045;-43
2022/11/03 08:41:42;;;;;;;9.13;2.13;;;;;;;6.05;88.64;98955.38;5044079;28;20049;-44
2022/11/03 08:44:09;;;;;;;7.57;2.00;;;;;;;6.09;88.74;98953.50;5045927;28;20071;-43
2022/11/03 08:46:36;;;;;;;4.68;1.50;;;;;;;6.14;88.58;98945.00;5041674;28;20048;-42
2022/11/03 08:49:03;;;;;;;5.50;1.23;;;;;;;6.19;88.81;98941.97;5040324;28;20099;-42
2022/11/03 08:51:29;;;;;;;5.65;1.55;;;;;;;6.24;88.56;98949.91;5043104;28;20057;-46
2022/11/03 08:53:56;;;;;;;5.93;1.50;;;;;;;6.29;88.49;98948.84;5047418;28;20056;-42
2022/11/03 08:56:22;;;;;;;7.47;2.00;;;;;;;6.33;88.65;98947.75;5049705;28;20511;-43
2022/11/03 08:58:50;;;;;;;9.43;1.70;;;;;;;6.40;88.73;98949.84;5049989;28;20061;-45
2022/11/03 09:01:17;;;;;;;4.53;1.05;;;;;;;6.45;88.71;98955.88;5042312;28;20406;-42
2022/11/03 09:03:45;;;;;;;6.78;2.00;;;;;;;6.51;88.60;98946.16;5048436;28;20064;-42
2022/11/03 09:06:12;;;;;;;10.45;1.50;;;;;;;6.57;88.75;98941.16;5047945;28;20498;-47
2022/11/03 09:08:39;;;;;;;7.80;1.90;;;;;;;6.62;88.43;98944.41;5048925;28;20064;-43
2022/11/03 09:11:26;;;;;;;5.97;2.22;;;;;;;6.68;88.38;98947.69;5047244;28;20144;-42
2022/11/03 09:13:53;;;;;;;10.18;1.65;;;;;;;6.74;88.40;98943.47;5047589;28;20056;-44
2022/11/03 09:16:20;;;;;;;4.85;1.15;;;;;;;6.79;88.41;98945.13;5048921;28;20046;-42
2022/11/03 09:18:46;;;;;;;8.05;1.63;;;;;;;6.83;88.20;98943.25;5059179;28;20045;-42
2022/11/03 09:21:13;;;;;;;13.32;1.77;;;;;;;6.88;88.46;98942.97;5049325;28;20048;-41
2022/11/03 09:23:40;;;;;;;4.93;1.25;;;;;;;6.94;88.34;98944.22;5049398;28;20403;-41
2022/11/03 09:26:07;;;;;;;4.43;1.02;;;;;;;6.99;88.48;98941.22;5034099;28;20055;-46
2022/11/03 09:28:34;;;;;;;5.53;1.55;;;;;;;7.05;88.44;98932.28;5044058;28;20040;-42
2022/11/03 09:31:00;;;;;;;4.78;1.15;;;;;;;7.12;88.24;98926.88;5048986;28;20079;-43
2022/11/03 09:33:27;;;;;;;7.32;1.77;;;;;;;7.17;88.20;98934.06;5044302;28;20053;-42
2022/11/03 09:35:53;;;;;;;4.97;1.50;;;;;;;7.20;88.16;98938.84;5049496;28;20041;-45
2022/11/03 09:38:20;;;;;;;3.00;0.80;;;;;;;7.25;88.07;98933.03;5043281;28;20045;-49
2022/11/03 09:40:47;;;;;;;10.43;1.65;;;;;;;7.28;88.21;98935.06;5038499;28;20052;-44
2022/11/03 09:43:18;;;;;;;10.32;2.75;;;;;;;7.31;88.18;98924.09;5045638;28;20689;-41
2022/11/03 09:45:45;;;;;;;9.82;2.47;;;;;;;7.36;88.12;98928.47;5045786;28;20102;-39
2022/11/03 09:48:12;;;;;;;4.32;0.98;;;;;;;7.43;88.17;98925.88;5044463;28;20049;-40
2022/11/03 09:50:40;;;;;;;12.73;2.58;;;;;;;7.48;87.92;98925.56;5047997;28;20052;-43
2022/11/03 09:53:11;;;;;;;8.23;1.52;;;;;;;7.53;87.97;98927.19;5046515;28;20051;-39
2022/11/03 09:55:38;;;;;;;7.32;1.70;;;;;;;7.57;87.86;98928.81;5047613;28;20057;-40
2022/11/03 09:58:14;;;;;;;10.63;1.63;;;;;;;7.62;87.90;98917.53;5046014;28;20294;-39
2022/11/03 10:00:41;;;;;;;9.70;2.28;;;;;;;7.66;87.87;98918.38;5048872;28;20152;-40
2022/11/03 10:03:12;;;;;;;11.73;1.90;;;;;;;7.69;87.76;98920.38;5043544;28;20457;-42
2022/11/03 10:05:41;;;;;;;3.90;1.25;;;;;;;7.73;87.80;98917.69;5030527;28;20048;-39
2022/11/03 10:08:17;;;;;;;9.02;2.22;;;;;;;7.78;87.79;98918.13;5036207;28;20053;-48
2022/11/03 10:10:49;;;;;;;7.50;1.40;;;;;;;7.82;87.67;98924.50;5043540;28;20140;-40
2022/11/03 10:13:46;;;;;;;6.05;1.27;;;;;;;7.89;87.59;98924.59;5043994;28;20418;-43
2022/11/03 10:16:19;;;;;;;12.43;2.13;;;;;;;7.95;87.48;98934.16;5045245;28;20390;-42
2022/11/03 10:18:46;;;;;;;5.18;1.13;;;;;;;7.98;87.49;98938.91;5042649;28;20048;-41
2022/11/03 10:21:25;;;;;;;5.82;1.15;;;;;;;8.03;87.39;98939.75;5046735;28;20045;-41
2022/11/03 10:23:52;;;;;;;6.00;1.23;;;;;;;8.08;87.29;98937.47;5043559;28;20118;-47
2022/11/03 10:26:20;;;;;;;7.93;1.30;;;;;;;8.14;87.13;98930.47;5042407;28;20044;-41
2022/11/03 10:29:07;;;;;;;9.40;1.58;;;;;;;8.19;87.08;98921.09;5040997;28;20378;-45
2022/11/03 10:31:39;;;;;;;4.60;1.15;;;;;;;8.19;87.01;98919.13;5050851;28;20102;-40
2022/11/03 10:34:22;;;;;;;10.52;1.70;;;;;;;8.26;86.92;98918.44;5050102;28;20040;-41
2022/11/03 10:36:49;;;;;;;8.15;1.13;;;;;;;8.30;86.99;98917.34;5048544;28;20455;-42
2022/11/03 10:39:29;;;;;;;8.50;1.10;;;;;;;8.36;86.92;98915.84;5048083;28;20048;-40
2022/11/03 10:41:57;;;;;;;4.75;1.38;;;;;;;8.41;86.62;98909.19;5050940;28;20402;-41
2022/11/03 10:44:28;;;;;;;7.53;2.58;;;;;;;8.45;86.63;98907.25;5041228;28;20047;-45
2022/11/03 10:47:00;;;;;;;7.80;1.20;;;;;;;8.49;86.44;98908.13;5047643;28;20049;-45
2022/11/03 10:49:32;;;;;;;8.23;1.73;;;;;;;8.54;86.44;98902.25;5043087;28;20049;-41
2022/11/03 10:52:17;;;;;;;7.50;1.20;;;;;;;8.61;86.04;98899.59;5047808;28;20099;-42
2022/11/03 10:54:44;;;;;;;11.05;1.40;;;;;;;8.64;85.99;98904.34;5049412;28;20036;-42
2022/11/03 10:57:11;;;;;;;5.25;1.40;;;;;;;8.71;85.85;98909.16;5049964;28;20131;-41
2022/11/03 10:59:39;;;;;;;5.25;1.10;;;;;;;8.74;85.81;98903.66;5056739;28;20045;-45
2022/11/03 11:02:18;;;;;;;3.30;0.80;;;;;;;8.77;85.63;98902.13;5040500;28;20119;-41
2022/11/03 11:04:47;;;;;;;8.63;2.13;;;;;;;8.80;85.46;98895.84;5045618;28;20041;-45
2022/11/03 11:07:27;;;;;;;5.45;1.58;;;;;;;8.83;85.19;98893.13;5046014;28;20037;-42
2022/11/03 11:09:54;;;;;;;5.95;1.35;;;;;;;8.85;85.26;98888.03;5034035;28;20056;-43
2022/11/03 11:12:24;;;;;;;6.22;1.30;;;;;;;8.87;85.17;98884.91;5049226;28;20057;-42
2022/11/03 11:15:06;;;;;;;6.45;1.38;;;;;;;8.92;84.79;98893.59;5047432;28;20037;-41
2022/11/03 11:17:44;;;;;;;5.77;1.30;;;;;;;8.93;84.86;98875.88;5047522;28;20111;-42
2022/11/03 11:20:17;;;;;;;7.43;1.27;;;;;;;8.97;84.59;98870.41;5051582;28;20573;-42
2022/11/03 11:22:44;;;;;;;9.75;1.33;;;;;;;9.01;84.39;98873.97;5046514;28;20048;-46
2022/11/03 11:25:11;;;;;;;10.18;1.17;;;;;;;9.02;84.03;98867.31;5047112;28;20410;-42
2022/11/03 11:27:38;;;;;;;13.43;2.28;;;;;;;9.03;84.02;98866.91;5048070;28;20047;-42
2022/11/03 11:30:26;;;;;;;9.82;0.93;;;;;;;9.06;83.93;98862.59;5031262;28;20043;-43
2022/11/03 11:33:00;;;;;;;10.13;2.63;;;;;;;9.09;83.85;98864.59;5047550;28;20053;-43
2022/11/03 11:35:27;;;;;;;10.57;2.35;;;;;;;9.13;83.77;98879.25;5041884;28;20129;-43
2022/11/03 11:37:53;;;;;;;10.50;1.80;;;;;;;9.13;83.71;98865.44;5050566;28;20056;-42
2022/11/03 11:40:23;;;;;;;8.95;1.92;;;;;;;9.17;83.82;98860.72;5051014;28;20403;-42
2022/11/03 11:43:03;;;;;;;13.55;2.25;;;;;;;9.22;83.70;98868.66;5050123;28;20047;-43
2022/11/03 11:46:08;;;;;;;8.80;1.50;;;;;;;9.31;83.80;98871.09;5042474;28;20099;-47
2022/11/03 11:48:36;;;;;;;29.70;3.10;;;;;;;9.38;83.62;98860.91;5039629;28;20056;-42
2022/11/03 11:51:03;;;;;;;7.50;1.52;;;;;;;9.45;83.52;98860.94;5051455;28;20045;-44
2022/11/03 11:53:38;;;;;;;4.00;1.20;;;;;;;9.54;83.29;98852.34;5049548;28;20052;-43
2022/11/03 11:56:09;;;;;;;11.27;2.80;;;;;;;9.58;83.30;98847.63;5045822;28;20060;-45
2022/11/03 11:58:40;;;;;;;6.30;1.30;;;;;;;9.64;83.21;98843.31;5049214;28;20455;-43
2022/11/03 12:01:28;;;;;;;5.57;1.27;;;;;;;9.68;82.91;98841.38;5035581;28;20088;-43
2022/11/03 12:03:59;;;;;;;8.02;1.30;;;;;;;9.70;82.86;98839.03;5048142;28;20418;-43
2022/11/03 12:06:38;;;;;;;4.75;1.50;;;;;;;9.73;82.78;98841.81;5045235;28;20045;-43
2022/11/03 12:09:11;;;;;;;4.38;1.15;;;;;;;9.75;82.74;98842.22;5046933;28;20048;-43
2022/11/03 12:11:45;;;;;;;8.63;1.27;;;;;;;9.82;82.54;98837.91;5050224;28;20041;-43
2022/11/03 12:17:37;;;;;;;4.07;0.82;;;;;;;9.92;82.31;98840.75;5040589;28;20072;-43
2022/11/03 12:20:35;;;;;;;5.47;1.42;;;;;;;10.01;81.70;98838.41;5044290;28;20060;-46
2022/11/03 12:23:02;;;;;;;9.45;1.75;;;;;;;10.02;81.72;98845.53;5046224;28;20049;-48